Terminal Aerodrome Forecast
Issued by NWS

Home | Current Version | Previous Version | Text Only | Print | Product List | Glossary On
Versions: 1 2 3 4 5 6 7 8 9 10 11 12 13
501
FTUS43 KGRB 201720
TAFAUW
TAF
KAUW 201720Z 2018/2118 27002KT P6SM BKN110
     FM210500 00000KT 5SM BR OVC090
      TEMPO 2109/2113 2SM BR SCT006 BKN070
     FM211300 07004KT 4SM BR BKN006=

USA.gov is the U.S. government's official web portal to all federal, state and local government web resources and services.